createdAt,value
2023-11-07T00:01:29.076Z,12.40
2023-11-07T00:04:08.629Z,11.80
2023-11-07T00:06:35.695Z,12.10
2023-11-07T00:09:03.136Z,11.40
2023-11-07T00:11:30.097Z,11.50
2023-11-07T00:13:57.030Z,10.90
2023-11-07T00:16:26.254Z,11.40
2023-11-07T00:18:53.176Z,10.80
2023-11-07T00:21:22.991Z,12.50
2023-11-07T00:23:49.969Z,10.50
2023-11-07T00:26:18.964Z,11.70
2023-11-07T00:28:47.927Z,13.90
2023-11-07T00:31:14.853Z,14.60
2023-11-07T00:33:41.707Z,18.20
2023-11-07T00:36:12.052Z,20.10
2023-11-07T00:38:42.243Z,23.30
2023-11-07T00:41:09.323Z,23.40
2023-11-07T00:43:36.229Z,23.00
2023-11-07T00:46:04.180Z,19.10
2023-11-07T00:48:31.227Z,18.90
2023-11-07T00:51:00.444Z,16.80
2023-11-07T00:53:27.916Z,16.70
2023-11-07T00:55:54.849Z,16.90
2023-11-07T00:58:21.749Z,20.00
2023-11-07T01:00:49.209Z,17.90
2023-11-07T01:03:16.204Z,21.00
2023-11-07T01:05:43.259Z,22.10
2023-11-07T01:08:10.217Z,21.60
2023-11-07T01:10:37.050Z,20.90
2023-11-07T01:13:04.297Z,20.30
2023-11-07T01:15:31.165Z,19.60
2023-11-07T01:17:58.310Z,18.20
2023-11-07T01:20:25.415Z,15.30
2023-11-07T01:22:52.423Z,12.60
2023-11-07T01:25:19.428Z,13.40
2023-11-07T01:27:46.318Z,12.20
2023-11-07T01:30:14.017Z,13.50
2023-11-07T01:32:43.021Z,11.40
2023-11-07T01:35:10.201Z,10.90
2023-11-07T01:37:37.182Z,9.70
2023-11-07T01:40:04.906Z,9.40
2023-11-07T01:42:32.005Z,9.30
2023-11-07T01:45:00.333Z,9.90
2023-11-07T01:47:27.292Z,9.20
2023-11-07T01:49:54.307Z,8.80
2023-11-07T01:52:21.858Z,8.00
2023-11-07T01:54:52.741Z,9.10
2023-11-07T01:57:20.368Z,9.40
2023-11-07T01:59:48.790Z,10.70
2023-11-07T02:02:18.704Z,9.20
2023-11-07T02:04:47.214Z,8.20
2023-11-07T02:07:14.366Z,7.20
2023-11-07T02:09:45.720Z,8.50
2023-11-07T02:12:13.337Z,8.70
2023-11-07T02:14:40.448Z,9.10
2023-11-07T02:17:07.587Z,9.20
2023-11-07T02:19:34.757Z,7.90
2023-11-07T02:22:02.207Z,7.40
2023-11-07T02:24:29.733Z,7.70
2023-11-07T02:26:57.863Z,7.40
2023-11-07T02:29:25.355Z,6.70
2023-11-07T02:31:52.429Z,6.60
2023-11-07T02:34:19.316Z,6.20
2023-11-07T02:36:46.825Z,6.10
2023-11-07T02:39:13.765Z,4.70
2023-11-07T02:41:41.057Z,6.80
2023-11-07T02:44:09.721Z,6.40
2023-11-07T02:46:42.369Z,6.80
2023-11-07T02:49:10.904Z,7.30
2023-11-07T02:51:39.047Z,7.50
2023-11-07T02:54:06.307Z,7.60
2023-11-07T02:56:34.097Z,6.70
2023-11-07T02:59:00.999Z,6.80
2023-11-07T03:01:28.023Z,6.90
2023-11-07T03:03:56.915Z,6.50
2023-11-07T03:06:23.942Z,5.80
2023-11-07T03:08:50.940Z,5.20
2023-11-07T03:11:17.847Z,5.20
2023-11-07T03:13:45.844Z,5.20
2023-11-07T03:16:12.621Z,5.00
2023-11-07T03:18:39.602Z,5.10
2023-11-07T03:21:09.113Z,4.70
2023-11-07T03:23:36.428Z,4.40
2023-11-07T03:26:04.883Z,4.50
2023-11-07T03:28:32.342Z,4.80
2023-11-07T03:30:59.214Z,4.10
2023-11-07T03:33:26.152Z,4.30
2023-11-07T03:35:53.712Z,3.70
2023-11-07T03:38:20.522Z,3.60
2023-11-07T03:40:47.516Z,3.70
2023-11-07T03:43:16.620Z,4.00
2023-11-07T03:45:43.808Z,3.70
2023-11-07T03:48:10.873Z,4.40
2023-11-07T03:50:37.876Z,4.80
2023-11-07T03:53:04.844Z,5.10
2023-11-07T03:55:32.437Z,5.90
2023-11-07T03:57:59.481Z,7.30
2023-11-07T04:00:26.586Z,8.00
2023-11-07T04:02:53.527Z,8.30
2023-11-07T04:05:21.034Z,7.00
2023-11-07T04:07:47.949Z,8.30
2023-11-07T04:10:14.854Z,6.90
2023-11-07T04:12:41.782Z,9.10
2023-11-07T04:15:09.695Z,9.10
2023-11-07T04:17:36.968Z,9.20
2023-11-07T04:20:04.607Z,8.30
2023-11-07T04:22:31.692Z,9.90
2023-11-07T04:24:58.478Z,9.40
2023-11-07T04:27:25.457Z,7.80
2023-11-07T04:29:52.298Z,6.60
2023-11-07T04:32:19.407Z,5.80
2023-11-07T04:34:48.164Z,6.70
2023-11-07T04:37:17.069Z,6.80
2023-11-07T04:39:43.956Z,6.50
2023-11-07T04:42:10.924Z,5.60
2023-11-07T04:44:37.969Z,6.20
2023-11-07T04:47:06.066Z,5.60
2023-11-07T04:49:33.293Z,5.50
2023-11-07T04:52:02.546Z,5.50
2023-11-07T04:54:30.208Z,4.80
2023-11-07T04:56:58.122Z,5.60
2023-11-07T04:59:25.071Z,6.00
2023-11-07T05:01:53.382Z,4.40
2023-11-07T05:04:20.502Z,4.50
2023-11-07T05:06:47.558Z,5.40
2023-11-07T05:09:14.750Z,4.20
2023-11-07T05:11:42.038Z,4.70
2023-11-07T05:14:09.541Z,4.10
2023-11-07T05:16:39.547Z,4.00
2023-11-07T05:19:09.576Z,3.80
2023-11-07T05:21:37.134Z,4.80
2023-11-07T05:24:05.098Z,3.50
2023-11-07T05:26:32.210Z,4.20
2023-11-07T05:29:00.114Z,3.80
2023-11-07T05:31:27.227Z,3.50
2023-11-07T05:33:54.273Z,3.30
2023-11-07T05:36:21.272Z,3.50
2023-11-07T05:38:48.180Z,3.50
2023-11-07T05:41:15.306Z,3.00
2023-11-07T05:43:43.478Z,3.00
2023-11-07T05:46:10.386Z,3.20
2023-11-07T05:48:37.919Z,3.00
2023-11-07T05:51:05.576Z,2.90
2023-11-07T05:53:32.496Z,3.00
2023-11-07T05:55:59.940Z,3.00
2023-11-07T05:58:30.484Z,4.00
2023-11-07T06:00:57.844Z,3.90
2023-11-07T06:03:24.815Z,3.50
2023-11-07T06:05:53.987Z,3.60
2023-11-07T06:08:21.080Z,3.20
2023-11-07T06:10:48.321Z,3.90
2023-11-07T06:13:15.769Z,3.70
2023-11-07T06:15:42.657Z,4.50
2023-11-07T06:18:09.983Z,4.30
2023-11-07T06:20:36.989Z,3.80
2023-11-07T06:23:04.004Z,3.70
2023-11-07T06:25:30.987Z,3.70
2023-11-07T06:27:58.324Z,3.90
2023-11-07T06:30:29.999Z,3.90
2023-11-07T06:32:58.135Z,3.60
2023-11-07T06:35:24.970Z,4.50
2023-11-07T06:37:51.748Z,4.70
2023-11-07T06:40:19.711Z,4.80
2023-11-07T06:42:47.712Z,4.50
2023-11-07T06:45:15.402Z,5.50
2023-11-07T06:47:44.299Z,5.00
2023-11-07T06:50:13.624Z,4.80
2023-11-07T06:52:42.940Z,4.90
2023-11-07T06:55:12.857Z,4.50
2023-11-07T06:57:40.449Z,4.70
2023-11-07T07:00:09.500Z,4.40
2023-11-07T07:02:37.580Z,4.50
2023-11-07T07:05:04.820Z,4.50
2023-11-07T07:07:31.892Z,5.30
2023-11-07T07:10:00.946Z,4.20
2023-11-07T07:12:28.089Z,4.40
2023-11-07T07:14:55.111Z,3.90
2023-11-07T07:17:23.164Z,4.10
2023-11-07T07:19:50.193Z,3.50
2023-11-07T07:22:27.987Z,4.00
2023-11-07T07:24:55.854Z,3.40
2023-11-07T07:27:27.439Z,3.80
2023-11-07T07:29:54.659Z,3.60
2023-11-07T07:32:21.640Z,4.40
2023-11-07T07:34:51.477Z,4.90
2023-11-07T07:37:21.367Z,5.90
2023-11-07T07:39:48.228Z,7.40
2023-11-07T07:42:17.725Z,8.20
2023-11-07T07:44:46.101Z,7.50
2023-11-07T07:47:15.865Z,6.50
2023-11-07T07:49:42.834Z,5.40
2023-11-07T07:52:10.057Z,3.90
2023-11-07T07:55:00.035Z,3.30
2023-11-07T07:57:24.959Z,3.00
2023-11-07T07:59:51.913Z,2.90
2023-11-07T08:02:20.164Z,2.80
2023-11-07T08:04:48.050Z,3.30
2023-11-07T08:07:17.977Z,3.60
2023-11-07T08:09:44.987Z,3.40
2023-11-07T08:12:12.701Z,4.30
2023-11-07T08:14:41.363Z,2.80
2023-11-07T08:17:09.962Z,3.50
2023-11-07T08:19:37.093Z,8.50
2023-11-07T08:22:07.429Z,4.80
2023-11-07T08:24:34.358Z,5.60
2023-11-07T08:27:01.777Z,5.40
2023-11-07T08:29:28.606Z,7.00
2023-11-07T08:31:55.525Z,6.10
2023-11-07T08:34:23.081Z,5.90
2023-11-07T08:36:56.868Z,5.60
2023-11-07T08:39:34.365Z,4.60
2023-11-07T08:42:01.296Z,4.10
2023-11-07T08:44:28.209Z,3.90
2023-11-07T08:46:55.387Z,3.90
2023-11-07T08:49:22.324Z,3.30
2023-11-07T08:51:52.069Z,3.70
2023-11-07T08:54:19.083Z,3.60
2023-11-07T08:56:49.725Z,5.70
2023-11-07T08:59:18.256Z,5.70
2023-11-07T09:01:47.626Z,5.40
2023-11-07T09:04:15.138Z,5.90
2023-11-07T09:06:42.117Z,6.70
2023-11-07T09:09:14.834Z,6.60
2023-11-07T09:11:42.516Z,7.10
2023-11-07T09:14:09.866Z,6.60
2023-11-07T09:16:36.793Z,7.10
2023-11-07T09:19:05.214Z,7.30
2023-11-07T09:21:32.420Z,6.90
2023-11-07T09:23:59.275Z,5.90
2023-11-07T09:26:26.145Z,7.80
2023-11-07T09:28:53.085Z,7.00
2023-11-07T09:31:20.038Z,6.10
2023-11-07T09:33:47.352Z,5.40
2023-11-07T09:36:15.894Z,5.20
2023-11-07T09:38:49.603Z,4.60
2023-11-07T09:41:20.039Z,4.50
2023-11-07T09:43:47.798Z,4.30
2023-11-07T09:46:15.193Z,4.30
2023-11-07T09:48:42.507Z,4.10
2023-11-07T09:51:10.544Z,4.90
2023-11-07T09:53:39.628Z,3.90
2023-11-07T09:56:11.168Z,4.90
2023-11-07T09:58:45.819Z,4.50
2023-11-07T10:03:43.749Z,3.90
2023-11-07T10:06:12.849Z,4.30
2023-11-07T10:08:43.348Z,4.80
2023-11-07T10:11:13.092Z,5.90
2023-11-07T10:13:59.710Z,5.70
2023-11-07T10:16:38.108Z,5.00
2023-11-07T10:19:05.527Z,5.40
2023-11-07T10:21:33.797Z,5.20
2023-11-07T10:24:01.380Z,5.10
2023-11-07T10:26:28.680Z,6.00
2023-11-07T10:29:18.192Z,5.70
2023-11-07T10:32:03.290Z,4.80
2023-11-07T10:34:31.338Z,4.70
2023-11-07T10:37:01.924Z,5.10
2023-11-07T10:39:30.638Z,5.30
2023-11-07T10:41:58.045Z,5.60
2023-11-07T10:44:28.758Z,4.10
2023-11-07T10:46:57.927Z,4.00
2023-11-07T10:49:25.725Z,4.70
2023-11-07T10:51:55.472Z,4.10
2023-11-07T10:54:22.730Z,4.70
2023-11-07T10:56:53.620Z,5.70
2023-11-07T10:59:26.283Z,4.80
2023-11-07T11:01:54.742Z,4.30
2023-11-07T11:04:26.042Z,4.40
2023-11-07T11:06:58.468Z,4.80
2023-11-07T11:09:27.986Z,4.90
2023-11-07T11:12:00.138Z,4.80
2023-11-07T11:14:28.111Z,4.30
2023-11-07T11:17:21.841Z,5.10
2023-11-07T11:20:23.039Z,3.10
2023-11-07T11:23:05.771Z,3.40
2023-11-07T11:25:54.159Z,3.40
2023-11-07T11:28:37.496Z,3.20
2023-11-07T11:31:05.271Z,3.50
2023-11-07T11:33:32.322Z,3.10
2023-11-07T11:35:59.473Z,3.60
2023-11-07T11:38:40.190Z,2.90
2023-11-07T11:41:10.632Z,3.70
2023-11-07T11:44:15.997Z,3.50
2023-11-07T11:46:44.430Z,3.70
2023-11-07T11:49:17.001Z,3.50
2023-11-07T11:51:47.171Z,3.20
2023-11-07T11:54:16.862Z,3.50
2023-11-07T11:56:50.123Z,3.30
2023-11-07T11:59:28.936Z,3.00
2023-11-07T12:02:03.132Z,2.90
2023-11-07T12:04:31.954Z,3.10
2023-11-07T12:07:10.861Z,3.30
2023-11-07T12:09:45.205Z,3.00
2023-11-07T12:12:16.103Z,2.90
2023-11-07T12:14:57.170Z,2.50
2023-11-07T12:17:29.353Z,2.80
2023-11-07T12:20:06.663Z,2.40
2023-11-07T12:22:34.689Z,2.50
2023-11-07T12:25:18.684Z,3.00
2023-11-07T12:28:06.302Z,2.50
2023-11-07T12:30:35.051Z,3.10
2023-11-07T12:33:11.274Z,2.70
2023-11-07T12:35:39.404Z,2.50
2023-11-07T12:38:08.201Z,2.70
2023-11-07T12:40:36.869Z,2.30
2023-11-07T12:43:07.383Z,2.50
2023-11-07T12:45:39.254Z,2.30
2023-11-07T12:48:10.317Z,2.30
2023-11-07T12:50:47.233Z,2.70
2023-11-07T12:53:18.494Z,2.20
2023-11-07T12:55:52.584Z,3.10
2023-11-07T12:58:32.421Z,3.10
2023-11-07T13:01:01.456Z,3.10
2023-11-07T13:03:32.208Z,2.40
2023-11-07T13:06:15.403Z,2.70
2023-11-07T13:08:44.963Z,2.50
2023-11-07T13:11:13.085Z,3.20
2023-11-07T13:13:41.396Z,2.40
2023-11-07T13:16:08.593Z,2.80
2023-11-07T13:18:37.650Z,2.80
2023-11-07T13:21:05.986Z,2.60
2023-11-07T13:23:33.070Z,2.60
2023-11-07T13:26:00.059Z,2.50
2023-11-07T13:28:29.076Z,2.40
2023-11-07T13:30:56.307Z,2.70
2023-11-07T13:33:23.303Z,2.60
2023-11-07T13:35:50.382Z,3.60
2023-11-07T13:38:17.734Z,4.00
2023-11-07T13:40:45.806Z,3.90
2023-11-07T13:43:13.054Z,3.10
2023-11-07T13:45:40.116Z,2.90
2023-11-07T13:48:07.349Z,2.80
2023-11-07T13:50:34.354Z,3.30
2023-11-07T13:53:01.400Z,3.40
2023-11-07T13:55:28.605Z,3.60
2023-11-07T13:57:55.842Z,4.20
2023-11-07T14:00:23.587Z,4.70
2023-11-07T14:02:53.566Z,6.30
2023-11-07T14:05:22.010Z,4.40
2023-11-07T14:07:50.988Z,4.50
2023-11-07T14:10:22.129Z,4.80
2023-11-07T14:12:52.968Z,5.50
2023-11-07T14:15:28.646Z,4.30
2023-11-07T14:17:55.660Z,3.60
2023-11-07T14:20:24.149Z,4.20
2023-11-07T14:22:54.216Z,3.90
2023-11-07T14:25:21.185Z,3.30
2023-11-07T14:27:48.239Z,4.60
2023-11-07T14:30:27.619Z,5.50
2023-11-07T14:33:04.547Z,5.70
2023-11-07T14:35:31.552Z,6.70
2023-11-07T14:37:59.009Z,6.70
2023-11-07T14:40:26.856Z,7.90
2023-11-07T14:42:55.264Z,7.40
2023-11-07T14:45:25.075Z,5.60
2023-11-07T14:47:55.108Z,4.70
2023-11-07T14:50:23.028Z,5.30
2023-11-07T14:52:49.986Z,6.50
2023-11-07T14:55:16.973Z,6.20
2023-11-07T14:57:44.559Z,6.40
2023-11-07T15:00:25.016Z,6.60
2023-11-07T15:02:53.620Z,10.00
2023-11-07T15:05:20.659Z,18.20
2023-11-07T15:07:47.601Z,30.90
2023-11-07T15:10:14.625Z,20.80
2023-11-07T15:12:41.609Z,20.30
2023-11-07T15:15:10.913Z,18.70
2023-11-07T15:17:39.196Z,19.80
2023-11-07T15:20:10.398Z,20.40
2023-11-07T15:22:37.576Z,11.20
2023-11-07T15:25:12.274Z,8.00
2023-11-07T15:27:44.312Z,8.60
2023-11-07T15:30:16.862Z,10.70
2023-11-07T15:32:55.321Z,8.00
2023-11-07T15:35:22.900Z,7.20
2023-11-07T15:37:49.807Z,8.30
2023-11-07T15:40:20.374Z,8.00
2023-11-07T15:42:49.028Z,9.70
2023-11-07T15:45:18.882Z,7.50
2023-11-07T15:47:46.651Z,8.60
2023-11-07T15:50:15.667Z,9.70
2023-11-07T15:53:00.088Z,10.40
2023-11-07T15:55:36.119Z,10.20
2023-11-07T15:58:03.161Z,11.70
2023-11-07T16:00:30.432Z,15.50
2023-11-07T16:02:57.777Z,18.90
2023-11-07T16:05:28.322Z,17.80
2023-11-07T16:07:55.416Z,16.80
2023-11-07T16:10:22.407Z,18.30
2023-11-07T16:12:51.396Z,27.60
2023-11-07T16:15:18.636Z,69.30
2023-11-07T16:17:49.422Z,67.90
2023-11-07T16:20:21.312Z,40.70
2023-11-07T16:22:49.251Z,35.50
2023-11-07T16:25:16.473Z,51.30
2023-11-07T16:27:43.624Z,48.10
2023-11-07T16:30:11.541Z,40.10
2023-11-07T16:32:38.752Z,42.70
2023-11-07T16:35:05.963Z,39.90
2023-11-07T16:37:36.335Z,39.30
2023-11-07T16:40:08.897Z,44.40
2023-11-07T16:42:36.635Z,41.60
2023-11-07T16:45:08.885Z,41.30
2023-11-07T16:47:36.896Z,48.10
2023-11-07T16:50:04.119Z,99.20
2023-11-07T16:52:31.073Z,87.70
2023-11-07T16:54:58.009Z,93.20
2023-11-07T16:57:25.014Z,124.50
2023-11-07T16:59:52.704Z,127.50
2023-11-07T17:02:20.195Z,106.20
2023-11-07T17:04:47.385Z,67.20
2023-11-07T17:07:14.849Z,52.10
2023-11-07T17:09:42.119Z,51.60
2023-11-07T17:12:09.107Z,63.80
2023-11-07T17:14:37.543Z,63.30
2023-11-07T17:17:05.529Z,65.60
2023-11-07T17:19:32.549Z,79.10
2023-11-07T17:21:59.529Z,70.20
2023-11-07T17:24:27.890Z,65.30
2023-11-07T17:26:55.389Z,63.90
2023-11-07T17:29:22.683Z,69.80
2023-11-07T17:31:49.871Z,77.10
2023-11-07T17:34:17.209Z,70.70
2023-11-07T17:36:46.427Z,63.60
2023-11-07T17:39:17.383Z,56.20
2023-11-07T17:41:45.558Z,50.30
2023-11-07T17:44:14.766Z,48.50
2023-11-07T17:46:43.010Z,48.10
2023-11-07T17:49:10.834Z,52.10
2023-11-07T17:51:42.745Z,57.30
2023-11-07T17:54:11.618Z,62.60
2023-11-07T17:56:41.164Z,64.80
2023-11-07T17:59:11.631Z,75.80
2023-11-07T18:01:39.879Z,60.60
2023-11-07T18:04:07.198Z,45.50
2023-11-07T18:06:34.548Z,44.60
2023-11-07T18:09:01.676Z,41.10
2023-11-07T18:11:33.749Z,39.90
2023-11-07T18:14:00.934Z,37.30
2023-11-07T18:16:28.116Z,46.00
2023-11-07T18:18:58.383Z,48.50
2023-11-07T18:21:27.912Z,34.70
2023-11-07T18:23:55.802Z,31.70
2023-11-07T18:26:23.475Z,35.70
2023-11-07T18:28:51.050Z,40.50
2023-11-07T18:31:18.281Z,50.50
2023-11-07T18:33:48.684Z,59.60
2023-11-07T18:36:15.751Z,56.60
2023-11-07T18:38:42.812Z,86.90
2023-11-07T18:41:09.697Z,74.30
2023-11-07T18:43:37.665Z,74.50
2023-11-07T18:46:05.650Z,89.50
2023-11-07T18:48:33.675Z,76.90
2023-11-07T18:51:00.794Z,52.60
2023-11-07T18:53:40.676Z,46.70
2023-11-07T18:56:12.946Z,38.30
2023-11-07T18:58:39.989Z,35.30
2023-11-07T19:01:08.608Z,38.90
2023-11-07T19:03:35.868Z,46.60
2023-11-07T19:06:03.595Z,44.80
2023-11-07T19:08:31.477Z,40.40
2023-11-07T19:11:00.053Z,34.60
2023-11-07T19:13:27.059Z,32.90
2023-11-07T19:15:54.961Z,33.10
2023-11-07T19:18:23.052Z,35.60
2023-11-07T19:20:50.095Z,40.10
2023-11-07T19:23:19.505Z,34.80
2023-11-07T19:25:47.143Z,30.60
2023-11-07T19:28:14.155Z,29.90
2023-11-07T19:30:41.173Z,30.10
2023-11-07T19:33:09.468Z,32.60
2023-11-07T19:35:36.719Z,33.50
2023-11-07T19:38:03.603Z,30.50
2023-11-07T19:40:32.008Z,33.30
2023-11-07T19:42:59.473Z,30.40
2023-11-07T19:45:26.725Z,34.80
2023-11-07T19:47:53.652Z,38.20
2023-11-07T19:50:20.944Z,37.20
2023-11-07T19:52:54.301Z,36.50
2023-11-07T19:55:29.831Z,37.00
2023-11-07T19:57:56.820Z,36.90
2023-11-07T20:00:27.238Z,35.80
2023-11-07T20:02:54.566Z,36.10
2023-11-07T20:05:21.913Z,36.60
2023-11-07T20:07:55.933Z,37.90
2023-11-07T20:10:25.289Z,37.00
2023-11-07T20:12:52.836Z,40.30
2023-11-07T20:15:20.007Z,40.60
2023-11-07T20:17:47.351Z,43.90
2023-11-07T20:20:15.190Z,45.30
2023-11-07T20:22:44.172Z,47.30
2023-11-07T20:25:11.478Z,44.60
2023-11-07T20:27:39.272Z,45.30
2023-11-07T20:30:08.342Z,47.50
2023-11-07T20:32:35.314Z,45.90
2023-11-07T20:35:03.058Z,48.30
2023-11-07T20:37:30.085Z,49.80
2023-11-07T20:39:57.314Z,58.10
2023-11-07T20:42:25.809Z,58.20
2023-11-07T20:45:00.564Z,47.40
2023-11-07T20:47:31.563Z,47.40
2023-11-07T20:50:06.576Z,47.70
2023-11-07T20:52:35.994Z,47.90
2023-11-07T20:55:03.178Z,49.60
2023-11-07T20:57:33.211Z,47.10
2023-11-07T21:00:00.227Z,48.10
2023-11-07T21:02:28.098Z,48.30
2023-11-07T21:04:55.345Z,49.20
2023-11-07T21:07:22.954Z,50.70
2023-11-07T21:09:51.239Z,49.70
2023-11-07T21:12:19.572Z,50.40
2023-11-07T21:14:46.612Z,52.90
2023-11-07T21:17:13.612Z,56.70
2023-11-07T21:19:41.371Z,56.50
2023-11-07T21:22:08.471Z,57.90
2023-11-07T21:24:35.607Z,56.70
2023-11-07T21:27:04.204Z,55.30
2023-11-07T21:29:33.423Z,52.20
2023-11-07T21:32:00.405Z,47.70
2023-11-07T21:34:27.741Z,42.50
2023-11-07T21:36:55.248Z,39.90
2023-11-07T21:39:23.634Z,38.70
2023-11-07T21:41:51.371Z,41.60
2023-11-07T21:44:22.178Z,40.40
2023-11-07T21:46:49.127Z,41.90
2023-11-07T21:49:16.349Z,43.40
2023-11-07T21:51:43.972Z,47.20
2023-11-07T21:54:11.778Z,49.30
2023-11-07T21:56:39.520Z,47.90
2023-11-07T21:59:09.493Z,46.60
2023-11-07T22:01:36.486Z,46.10
2023-11-07T22:04:05.801Z,46.30
2023-11-07T22:06:33.117Z,44.00
2023-11-07T22:09:00.272Z,43.60
2023-11-07T22:11:27.215Z,44.10
2023-11-07T22:13:56.987Z,41.30
2023-11-07T22:16:23.799Z,41.90
2023-11-07T22:18:50.579Z,42.20
2023-11-07T22:21:18.425Z,41.20
2023-11-07T22:23:45.708Z,42.40
2023-11-07T22:26:13.127Z,42.90
2023-11-07T22:28:40.586Z,40.60
2023-11-07T22:31:07.606Z,42.70
2023-11-07T22:33:34.600Z,40.60
2023-11-07T22:36:01.691Z,40.30
2023-11-07T22:38:28.522Z,38.00
2023-11-07T22:40:55.741Z,41.90
2023-11-07T22:43:22.768Z,41.40
2023-11-07T22:45:49.833Z,42.70
2023-11-07T22:48:19.316Z,39.20
2023-11-07T22:50:46.780Z,41.00
2023-11-07T22:53:14.387Z,41.40
2023-11-07T22:55:41.392Z,41.60
2023-11-07T22:58:08.737Z,42.40
2023-11-07T23:00:38.864Z,42.30
2023-11-07T23:03:14.126Z,41.90
2023-11-07T23:05:42.440Z,41.90
2023-11-07T23:08:10.284Z,42.20
2023-11-07T23:10:38.352Z,51.40
2023-11-07T23:13:08.775Z,45.70
2023-11-07T23:15:39.509Z,40.50
2023-11-07T23:18:07.792Z,37.90
2023-11-07T23:20:35.849Z,39.50
2023-11-07T23:23:03.567Z,39.90
2023-11-07T23:25:30.544Z,38.30
2023-11-07T23:27:57.427Z,38.50
2023-11-07T23:30:24.317Z,40.40
2023-11-07T23:32:51.678Z,36.20
2023-11-07T23:35:18.947Z,38.70
2023-11-07T23:37:46.030Z,39.70
2023-11-07T23:40:13.343Z,35.90
2023-11-07T23:42:43.814Z,33.70
2023-11-07T23:45:11.134Z,32.10
2023-11-07T23:47:40.351Z,31.20
2023-11-07T23:50:08.065Z,30.80
2023-11-07T23:52:35.672Z,31.90
2023-11-07T23:55:03.592Z,32.80
2023-11-07T23:57:30.895Z,31.70
2023-11-07T23:59:57.831Z,32.60
